sensor_id;sensor_type;location;lat;lon;timestamp;P1;durP1;ratioP1;P2;durP2;ratioP2
39074;SDS011;24826;52.070;20.970;2022-09-29T00:02:20;10.57;;;7.07;;
39074;SDS011;24826;52.070;20.970;2022-09-29T00:05:05;11.95;;;6.78;;
39074;SDS011;24826;52.070;20.970;2022-09-29T00:07:50;9.63;;;6.18;;
39074;SDS011;24826;52.070;20.970;2022-09-29T00:10:34;11.65;;;7.05;;
39074;SDS011;24826;52.070;20.970;2022-09-29T00:13:23;9.73;;;6.70;;
39074;SDS011;24826;52.070;20.970;2022-09-29T00:16:08;10.32;;;6.18;;
39074;SDS011;24826;52.070;20.970;2022-09-29T00:18:53;10.55;;;6.07;;
39074;SDS011;24826;52.070;20.970;2022-09-29T00:21:38;11.00;;;6.07;;
39074;SDS011;24826;52.070;20.970;2022-09-29T00:24:22;10.00;;;5.88;;
39074;SDS011;24826;52.070;20.970;2022-09-29T00:27:06;11.25;;;6.68;;
39074;SDS011;24826;52.070;20.970;2022-09-29T00:29:51;9.88;;;6.22;;
39074;SDS011;24826;52.070;20.970;2022-09-29T00:32:35;9.30;;;6.07;;
39074;SDS011;24826;52.070;20.970;2022-09-29T00:35:20;8.13;;;6.05;;
39074;SDS011;24826;52.070;20.970;2022-09-29T00:38:04;8.63;;;5.55;;
39074;SDS011;24826;52.070;20.970;2022-09-29T00:40:48;12.60;;;6.22;;
39074;SDS011;24826;52.070;20.970;2022-09-29T00:49:46;9.00;;;5.97;;
39074;SDS011;24826;52.070;20.970;2022-09-29T00:52:36;8.82;;;5.70;;
39074;SDS011;24826;52.070;20.970;2022-09-29T00:55:35;8.27;;;5.75;;
39074;SDS011;24826;52.070;20.970;2022-09-29T01:01:13;9.65;;;5.38;;
39074;SDS011;24826;52.070;20.970;2022-09-29T01:04:03;8.05;;;5.95;;
39074;SDS011;24826;52.070;20.970;2022-09-29T01:06:53;13.25;;;6.28;;
39074;SDS011;24826;52.070;20.970;2022-09-29T01:09:40;9.88;;;5.93;;
39074;SDS011;24826;52.070;20.970;2022-09-29T01:12:26;9.18;;;5.20;;
39074;SDS011;24826;52.070;20.970;2022-09-29T01:15:15;9.77;;;6.38;;
39074;SDS011;24826;52.070;20.970;2022-09-29T01:18:02;8.50;;;5.68;;
39074;SDS011;24826;52.070;20.970;2022-09-29T01:33:06;8.68;;;6.18;;
39074;SDS011;24826;52.070;20.970;2022-09-29T01:36:01;9.93;;;6.38;;
39074;SDS011;24826;52.070;20.970;2022-09-29T01:42:21;10.02;;;6.13;;
39074;SDS011;24826;52.070;20.970;2022-09-29T01:48:03;10.65;;;6.88;;
39074;SDS011;24826;52.070;20.970;2022-09-29T01:50:53;9.85;;;6.43;;
39074;SDS011;24826;52.070;20.970;2022-09-29T01:53:44;9.35;;;6.50;;
39074;SDS011;24826;52.070;20.970;2022-09-29T01:56:35;10.85;;;6.40;;
39074;SDS011;24826;52.070;20.970;2022-09-29T01:59:27;12.00;;;7.68;;
39074;SDS011;24826;52.070;20.970;2022-09-29T02:02:15;10.02;;;6.90;;
39074;SDS011;24826;52.070;20.970;2022-09-29T02:05:07;11.73;;;7.53;;
39074;SDS011;24826;52.070;20.970;2022-09-29T02:07:57;11.20;;;7.38;;
39074;SDS011;24826;52.070;20.970;2022-09-29T02:11:00;11.50;;;7.18;;
39074;SDS011;24826;52.070;20.970;2022-09-29T02:16:48;9.52;;;6.38;;
39074;SDS011;24826;52.070;20.970;2022-09-29T02:19:55;9.60;;;6.72;;
39074;SDS011;24826;52.070;20.970;2022-09-29T02:22:39;12.50;;;6.78;;
39074;SDS011;24826;52.070;20.970;2022-09-29T02:25:25;10.18;;;6.97;;
39074;SDS011;24826;52.070;20.970;2022-09-29T02:28:09;14.32;;;7.72;;
39074;SDS011;24826;52.070;20.970;2022-09-29T02:30:54;10.88;;;6.60;;
39074;SDS011;24826;52.070;20.970;2022-09-29T02:33:38;10.85;;;7.20;;
39074;SDS011;24826;52.070;20.970;2022-09-29T02:49:27;11.15;;;7.18;;
39074;SDS011;24826;52.070;20.970;2022-09-29T03:02:13;12.13;;;7.00;;
39074;SDS011;24826;52.070;20.970;2022-09-29T03:04:59;10.60;;;6.80;;
39074;SDS011;24826;52.070;20.970;2022-09-29T03:07:44;9.98;;;6.43;;
39074;SDS011;24826;52.070;20.970;2022-09-29T03:10:28;12.02;;;6.97;;
39074;SDS011;24826;52.070;20.970;2022-09-29T03:13:13;10.75;;;6.72;;
39074;SDS011;24826;52.070;20.970;2022-09-29T03:15:57;11.93;;;7.85;;
39074;SDS011;24826;52.070;20.970;2022-09-29T03:18:42;11.45;;;7.65;;
39074;SDS011;24826;52.070;20.970;2022-09-29T03:21:27;10.30;;;7.20;;
39074;SDS011;24826;52.070;20.970;2022-09-29T03:24:11;9.93;;;6.80;;
39074;SDS011;24826;52.070;20.970;2022-09-29T03:26:56;12.68;;;7.07;;
39074;SDS011;24826;52.070;20.970;2022-09-29T03:29:40;10.57;;;7.13;;
39074;SDS011;24826;52.070;20.970;2022-09-29T03:32:25;10.60;;;6.57;;
39074;SDS011;24826;52.070;20.970;2022-09-29T03:35:10;10.20;;;6.75;;
39074;SDS011;24826;52.070;20.970;2022-09-29T03:37:59;10.75;;;6.65;;
39074;SDS011;24826;52.070;20.970;2022-09-29T03:40:44;10.80;;;6.85;;
39074;SDS011;24826;52.070;20.970;2022-09-29T03:43:28;9.98;;;6.57;;
39074;SDS011;24826;52.070;20.970;2022-09-29T03:46:13;11.02;;;7.38;;
39074;SDS011;24826;52.070;20.970;2022-09-29T03:48:57;11.07;;;7.40;;
39074;SDS011;24826;52.070;20.970;2022-09-29T03:51:41;9.80;;;7.18;;
39074;SDS011;24826;52.070;20.970;2022-09-29T03:54:26;9.85;;;6.88;;
39074;SDS011;24826;52.070;20.970;2022-09-29T03:57:11;10.30;;;7.03;;
39074;SDS011;24826;52.070;20.970;2022-09-29T03:59:55;11.63;;;7.38;;
39074;SDS011;24826;52.070;20.970;2022-09-29T04:02:40;10.43;;;7.25;;
39074;SDS011;24826;52.070;20.970;2022-09-29T04:05:24;10.05;;;7.25;;
39074;SDS011;24826;52.070;20.970;2022-09-29T04:08:10;9.48;;;6.65;;
39074;SDS011;24826;52.070;20.970;2022-09-29T04:10:55;9.45;;;6.40;;
39074;SDS011;24826;52.070;20.970;2022-09-29T04:13:41;11.35;;;6.43;;
39074;SDS011;24826;52.070;20.970;2022-09-29T04:16:25;10.10;;;6.97;;
39074;SDS011;24826;52.070;20.970;2022-09-29T04:19:09;8.45;;;6.45;;
39074;SDS011;24826;52.070;20.970;2022-09-29T04:21:54;9.73;;;6.63;;
39074;SDS011;24826;52.070;20.970;2022-09-29T04:24:38;9.63;;;6.80;;
39074;SDS011;24826;52.070;20.970;2022-09-29T04:27:23;9.77;;;6.88;;
39074;SDS011;24826;52.070;20.970;2022-09-29T04:30:08;10.02;;;6.75;;
39074;SDS011;24826;52.070;20.970;2022-09-29T04:32:53;10.77;;;8.00;;
39074;SDS011;24826;52.070;20.970;2022-09-29T04:35:38;9.98;;;7.13;;
39074;SDS011;24826;52.070;20.970;2022-09-29T04:38:22;10.77;;;7.40;;
39074;SDS011;24826;52.070;20.970;2022-09-29T04:41:07;12.98;;;8.38;;
39074;SDS011;24826;52.070;20.970;2022-09-29T04:43:52;9.63;;;7.38;;
39074;SDS011;24826;52.070;20.970;2022-09-29T04:46:36;10.05;;;7.57;;
39074;SDS011;24826;52.070;20.970;2022-09-29T04:49:21;9.73;;;6.90;;
39074;SDS011;24826;52.070;20.970;2022-09-29T04:52:05;10.50;;;7.35;;
39074;SDS011;24826;52.070;20.970;2022-09-29T04:54:49;10.75;;;6.78;;
39074;SDS011;24826;52.070;20.970;2022-09-29T04:57:34;10.13;;;7.18;;
39074;SDS011;24826;52.070;20.970;2022-09-29T05:00:18;9.40;;;6.93;;
39074;SDS011;24826;52.070;20.970;2022-09-29T05:03:04;10.50;;;7.40;;
39074;SDS011;24826;52.070;20.970;2022-09-29T05:05:53;13.98;;;8.13;;
39074;SDS011;24826;52.070;20.970;2022-09-29T05:08:38;10.88;;;8.02;;
39074;SDS011;24826;52.070;20.970;2022-09-29T05:11:22;13.65;;;7.65;;
39074;SDS011;24826;52.070;20.970;2022-09-29T05:14:07;11.32;;;8.68;;
39074;SDS011;24826;52.070;20.970;2022-09-29T05:16:54;11.80;;;8.98;;
39074;SDS011;24826;52.070;20.970;2022-09-29T05:19:39;11.18;;;8.02;;
39074;SDS011;24826;52.070;20.970;2022-09-29T05:22:24;10.38;;;7.30;;
39074;SDS011;24826;52.070;20.970;2022-09-29T05:25:09;12.18;;;8.05;;
39074;SDS011;24826;52.070;20.970;2022-09-29T05:27:53;15.35;;;7.70;;
39074;SDS011;24826;52.070;20.970;2022-09-29T05:30:38;11.77;;;7.63;;
39074;SDS011;24826;52.070;20.970;2022-09-29T05:33:21;11.98;;;8.43;;
39074;SDS011;24826;52.070;20.970;2022-09-29T05:36:07;11.57;;;8.13;;
39074;SDS011;24826;52.070;20.970;2022-09-29T05:38:53;12.20;;;7.70;;
39074;SDS011;24826;52.070;20.970;2022-09-29T05:41:39;13.75;;;8.55;;
39074;SDS011;24826;52.070;20.970;2022-09-29T05:44:24;13.23;;;8.07;;
39074;SDS011;24826;52.070;20.970;2022-09-29T05:47:08;11.32;;;7.22;;
39074;SDS011;24826;52.070;20.970;2022-09-29T05:49:52;12.68;;;8.15;;
39074;SDS011;24826;52.070;20.970;2022-09-29T05:52:37;12.50;;;8.13;;
39074;SDS011;24826;52.070;20.970;2022-09-29T05:55:22;11.43;;;8.70;;
39074;SDS011;24826;52.070;20.970;2022-09-29T05:58:07;11.90;;;8.43;;
39074;SDS011;24826;52.070;20.970;2022-09-29T06:00:52;11.55;;;7.97;;
39074;SDS011;24826;52.070;20.970;2022-09-29T06:03:36;14.95;;;8.82;;
39074;SDS011;24826;52.070;20.970;2022-09-29T06:06:22;11.93;;;8.70;;
39074;SDS011;24826;52.070;20.970;2022-09-29T06:09:08;12.20;;;8.65;;
39074;SDS011;24826;52.070;20.970;2022-09-29T06:11:52;11.30;;;8.55;;
39074;SDS011;24826;52.070;20.970;2022-09-29T06:14:37;12.88;;;8.55;;
39074;SDS011;24826;52.070;20.970;2022-09-29T06:17:22;13.48;;;9.35;;
39074;SDS011;24826;52.070;20.970;2022-09-29T06:20:07;11.60;;;9.13;;
39074;SDS011;24826;52.070;20.970;2022-09-29T06:22:54;12.95;;;9.07;;
39074;SDS011;24826;52.070;20.970;2022-09-29T06:25:39;13.65;;;9.88;;
39074;SDS011;24826;52.070;20.970;2022-09-29T06:28:24;16.25;;;9.63;;
39074;SDS011;24826;52.070;20.970;2022-09-29T06:31:13;13.60;;;9.27;;
39074;SDS011;24826;52.070;20.970;2022-09-29T06:34:03;12.60;;;9.23;;
39074;SDS011;24826;52.070;20.970;2022-09-29T06:36:48;15.13;;;10.15;;
39074;SDS011;24826;52.070;20.970;2022-09-29T06:39:51;14.68;;;9.77;;
39074;SDS011;24826;52.070;20.970;2022-09-29T06:42:35;17.75;;;10.80;;
39074;SDS011;24826;52.070;20.970;2022-09-29T06:45:19;14.40;;;9.80;;
39074;SDS011;24826;52.070;20.970;2022-09-29T06:48:04;13.48;;;10.43;;
39074;SDS011;24826;52.070;20.970;2022-09-29T06:50:49;14.00;;;10.60;;
39074;SDS011;24826;52.070;20.970;2022-09-29T06:53:33;14.70;;;10.15;;
39074;SDS011;24826;52.070;20.970;2022-09-29T06:56:19;13.55;;;9.73;;
39074;SDS011;24826;52.070;20.970;2022-09-29T06:59:03;12.52;;;9.57;;
39074;SDS011;24826;52.070;20.970;2022-09-29T07:01:48;14.40;;;9.57;;
39074;SDS011;24826;52.070;20.970;2022-09-29T07:04:33;12.20;;;9.18;;
39074;SDS011;24826;52.070;20.970;2022-09-29T07:07:17;13.13;;;9.50;;
39074;SDS011;24826;52.070;20.970;2022-09-29T07:10:02;12.60;;;9.32;;
39074;SDS011;24826;52.070;20.970;2022-09-29T07:12:46;13.02;;;9.05;;
39074;SDS011;24826;52.070;20.970;2022-09-29T07:15:31;13.02;;;9.00;;
39074;SDS011;24826;52.070;20.970;2022-09-29T07:18:15;12.63;;;9.38;;
39074;SDS011;24826;52.070;20.970;2022-09-29T07:21:00;12.77;;;9.10;;
39074;SDS011;24826;52.070;20.970;2022-09-29T07:23:45;11.45;;;9.15;;
39074;SDS011;24826;52.070;20.970;2022-09-29T07:26:30;12.75;;;9.63;;
39074;SDS011;24826;52.070;20.970;2022-09-29T07:29:15;12.45;;;9.27;;
39074;SDS011;24826;52.070;20.970;2022-09-29T07:31:59;16.42;;;9.50;;
39074;SDS011;24826;52.070;20.970;2022-09-29T07:34:43;14.48;;;10.02;;
39074;SDS011;24826;52.070;20.970;2022-09-29T07:37:28;14.98;;;9.48;;
39074;SDS011;24826;52.070;20.970;2022-09-29T07:40:13;15.98;;;10.38;;
39074;SDS011;24826;52.070;20.970;2022-09-29T07:42:58;12.15;;;9.45;;
39074;SDS011;24826;52.070;20.970;2022-09-29T07:45:49;11.95;;;9.50;;
39074;SDS011;24826;52.070;20.970;2022-09-29T07:48:35;12.15;;;8.98;;
39074;SDS011;24826;52.070;20.970;2022-09-29T07:51:19;11.77;;;8.90;;
39074;SDS011;24826;52.070;20.970;2022-09-29T07:54:04;12.07;;;8.98;;
39074;SDS011;24826;52.070;20.970;2022-09-29T07:56:49;11.43;;;9.13;;
39074;SDS011;24826;52.070;20.970;2022-09-29T07:59:33;11.88;;;8.85;;
39074;SDS011;24826;52.070;20.970;2022-09-29T08:02:17;12.88;;;9.02;;
39074;SDS011;24826;52.070;20.970;2022-09-29T08:05:02;11.52;;;8.63;;
39074;SDS011;24826;52.070;20.970;2022-09-29T08:07:49;11.98;;;9.05;;
39074;SDS011;24826;52.070;20.970;2022-09-29T08:10:35;12.68;;;9.40;;
39074;SDS011;24826;52.070;20.970;2022-09-29T08:13:19;13.13;;;8.57;;
39074;SDS011;24826;52.070;20.970;2022-09-29T08:16:05;12.60;;;9.15;;
39074;SDS011;24826;52.070;20.970;2022-09-29T08:18:51;13.38;;;9.82;;
39074;SDS011;24826;52.070;20.970;2022-09-29T08:21:35;15.68;;;8.82;;
39074;SDS011;24826;52.070;20.970;2022-09-29T08:24:20;12.10;;;8.65;;
39074;SDS011;24826;52.070;20.970;2022-09-29T08:27:04;14.30;;;9.45;;
39074;SDS011;24826;52.070;20.970;2022-09-29T08:29:49;12.40;;;8.95;;
39074;SDS011;24826;52.070;20.970;2022-09-29T08:32:34;11.43;;;9.10;;
39074;SDS011;24826;52.070;20.970;2022-09-29T08:35:18;14.23;;;9.13;;
39074;SDS011;24826;52.070;20.970;2022-09-29T08:38:04;11.50;;;8.77;;
39074;SDS011;24826;52.070;20.970;2022-09-29T08:40:48;13.38;;;8.73;;
39074;SDS011;24826;52.070;20.970;2022-09-29T08:43:34;13.45;;;8.52;;
39074;SDS011;24826;52.070;20.970;2022-09-29T08:46:25;12.00;;;8.88;;
39074;SDS011;24826;52.070;20.970;2022-09-29T08:49:19;10.70;;;7.20;;
39074;SDS011;24826;52.070;20.970;2022-09-29T08:52:16;9.77;;;7.90;;
39074;SDS011;24826;52.070;20.970;2022-09-29T08:58:01;10.85;;;7.63;;
39074;SDS011;24826;52.070;20.970;2022-09-29T09:10:02;9.80;;;7.43;;
39074;SDS011;24826;52.070;20.970;2022-09-29T09:13:04;10.25;;;7.60;;
39074;SDS011;24826;52.070;20.970;2022-09-29T09:22:20;10.40;;;7.38;;
39074;SDS011;24826;52.070;20.970;2022-09-29T09:25:16;9.63;;;7.90;;
39074;SDS011;24826;52.070;20.970;2022-09-29T09:31:02;10.93;;;7.50;;
39074;SDS011;24826;52.070;20.970;2022-09-29T09:34:02;10.32;;;7.38;;
39074;SDS011;24826;52.070;20.970;2022-09-29T09:37:02;9.93;;;6.93;;
39074;SDS011;24826;52.070;20.970;2022-09-29T09:45:51;10.95;;;8.15;;
39074;SDS011;24826;52.070;20.970;2022-09-29T09:48:57;10.80;;;7.40;;
39074;SDS011;24826;52.070;20.970;2022-09-29T09:52:00;12.52;;;7.43;;
39074;SDS011;24826;52.070;20.970;2022-09-29T09:54:55;10.55;;;7.70;;
39074;SDS011;24826;52.070;20.970;2022-09-29T10:03:34;9.55;;;7.72;;
39074;SDS011;24826;52.070;20.970;2022-09-29T10:06:20;8.95;;;7.35;;
39074;SDS011;24826;52.070;20.970;2022-09-29T10:09:04;11.68;;;6.60;;
39074;SDS011;24826;52.070;20.970;2022-09-29T10:11:49;9.32;;;7.35;;
39074;SDS011;24826;52.070;20.970;2022-09-29T10:14:34;11.95;;;6.85;;
39074;SDS011;24826;52.070;20.970;2022-09-29T10:17:19;9.48;;;6.88;;
39074;SDS011;24826;52.070;20.970;2022-09-29T10:20:09;8.48;;;5.85;;
39074;SDS011;24826;52.070;20.970;2022-09-29T10:22:53;7.55;;;5.38;;
39074;SDS011;24826;52.070;20.970;2022-09-29T10:29:01;10.30;;;5.35;;
39074;SDS011;24826;52.070;20.970;2022-09-29T10:32:13;9.45;;;5.50;;
39074;SDS011;24826;52.070;20.970;2022-09-29T10:38:07;8.15;;;6.38;;
39074;SDS011;24826;52.070;20.970;2022-09-29T10:41:01;7.10;;;5.50;;
39074;SDS011;24826;52.070;20.970;2022-09-29T10:43:48;7.68;;;4.60;;
39074;SDS011;24826;52.070;20.970;2022-09-29T10:49:32;7.90;;;5.05;;
39074;SDS011;24826;52.070;20.970;2022-09-29T10:52:24;8.98;;;4.55;;
39074;SDS011;24826;52.070;20.970;2022-09-29T10:55:16;6.60;;;4.70;;
39074;SDS011;24826;52.070;20.970;2022-09-29T10:58:05;6.97;;;5.00;;
39074;SDS011;24826;52.070;20.970;2022-09-29T11:06:46;6.30;;;5.10;;
39074;SDS011;24826;52.070;20.970;2022-09-29T11:09:39;6.82;;;5.05;;
39074;SDS011;24826;52.070;20.970;2022-09-29T11:12:27;6.32;;;4.32;;
39074;SDS011;24826;52.070;20.970;2022-09-29T11:15:25;7.78;;;4.45;;
39074;SDS011;24826;52.070;20.970;2022-09-29T11:18:18;7.07;;;4.38;;
39074;SDS011;24826;52.070;20.970;2022-09-29T11:30:47;7.05;;;5.20;;
39074;SDS011;24826;52.070;20.970;2022-09-29T11:37:14;7.75;;;5.50;;
39074;SDS011;24826;52.070;20.970;2022-09-29T11:40:11;9.25;;;5.90;;
39074;SDS011;24826;52.070;20.970;2022-09-29T11:43:09;8.68;;;6.40;;
39074;SDS011;24826;52.070;20.970;2022-09-29T12:01:37;9.05;;;6.40;;
39074;SDS011;24826;52.070;20.970;2022-09-29T12:04:31;7.15;;;5.30;;
39074;SDS011;24826;52.070;20.970;2022-09-29T12:10:35;8.38;;;5.78;;
39074;SDS011;24826;52.070;20.970;2022-09-29T12:13:26;8.82;;;5.70;;
39074;SDS011;24826;52.070;20.970;2022-09-29T12:16:23;7.35;;;5.30;;
39074;SDS011;24826;52.070;20.970;2022-09-29T12:19:14;8.85;;;5.30;;
39074;SDS011;24826;52.070;20.970;2022-09-29T12:22:00;7.90;;;5.30;;
39074;SDS011;24826;52.070;20.970;2022-09-29T12:24:50;7.18;;;5.65;;
39074;SDS011;24826;52.070;20.970;2022-09-29T12:27:39;8.25;;;5.20;;
39074;SDS011;24826;52.070;20.970;2022-09-29T12:30:39;6.78;;;4.95;;
39074;SDS011;24826;52.070;20.970;2022-09-29T12:33:30;6.00;;;4.60;;
39074;SDS011;24826;52.070;20.970;2022-09-29T12:46:10;7.22;;;5.60;;
39074;SDS011;24826;52.070;20.970;2022-09-29T12:49:25;8.18;;;5.50;;
39074;SDS011;24826;52.070;20.970;2022-09-29T12:52:19;7.45;;;5.75;;
39074;SDS011;24826;52.070;20.970;2022-09-29T12:55:14;7.22;;;5.45;;
39074;SDS011;24826;52.070;20.970;2022-09-29T12:58:05;6.65;;;4.80;;
39074;SDS011;24826;52.070;20.970;2022-09-29T13:00:59;6.60;;;5.43;;
39074;SDS011;24826;52.070;20.970;2022-09-29T13:07:17;7.18;;;4.88;;
39074;SDS011;24826;52.070;20.970;2022-09-29T13:10:21;7.30;;;4.80;;
39074;SDS011;24826;52.070;20.970;2022-09-29T13:16:19;6.65;;;4.80;;
39074;SDS011;24826;52.070;20.970;2022-09-29T13:25:22;7.43;;;5.30;;
39074;SDS011;24826;52.070;20.970;2022-09-29T13:28:31;6.28;;;4.88;;
39074;SDS011;24826;52.070;20.970;2022-09-29T13:31:25;8.23;;;5.50;;
39074;SDS011;24826;52.070;20.970;2022-09-29T13:34:22;6.00;;;4.93;;
39074;SDS011;24826;52.070;20.970;2022-09-29T13:37:16;6.90;;;5.53;;
39074;SDS011;24826;52.070;20.970;2022-09-29T13:40:06;7.88;;;5.85;;
39074;SDS011;24826;52.070;20.970;2022-09-29T13:42:59;7.57;;;5.57;;
39074;SDS011;24826;52.070;20.970;2022-09-29T13:45:48;7.20;;;5.10;;
39074;SDS011;24826;52.070;20.970;2022-09-29T13:48:33;6.88;;;5.50;;
39074;SDS011;24826;52.070;20.970;2022-09-29T13:51:23;8.07;;;5.47;;
39074;SDS011;24826;52.070;20.970;2022-09-29T13:54:13;9.20;;;5.47;;
39074;SDS011;24826;52.070;20.970;2022-09-29T14:02:44;12.52;;;6.28;;
39074;SDS011;24826;52.070;20.970;2022-09-29T14:05:45;9.63;;;6.05;;
39074;SDS011;24826;52.070;20.970;2022-09-29T14:08:54;9.05;;;6.30;;
39074;SDS011;24826;52.070;20.970;2022-09-29T14:11:50;10.43;;;6.80;;
39074;SDS011;24826;52.070;20.970;2022-09-29T14:14:37;8.18;;;6.28;;
39074;SDS011;24826;52.070;20.970;2022-09-29T14:17:46;7.63;;;5.78;;
39074;SDS011;24826;52.070;20.970;2022-09-29T14:20:34;8.80;;;6.40;;
39074;SDS011;24826;52.070;20.970;2022-09-29T14:23:44;7.15;;;5.68;;
39074;SDS011;24826;52.070;20.970;2022-09-29T14:26:44;7.70;;;6.00;;
39074;SDS011;24826;52.070;20.970;2022-09-29T14:29:34;8.73;;;5.88;;
39074;SDS011;24826;52.070;20.970;2022-09-29T14:35:42;8.05;;;5.78;;
39074;SDS011;24826;52.070;20.970;2022-09-29T14:38:33;8.23;;;5.75;;
39074;SDS011;24826;52.070;20.970;2022-09-29T14:44:11;9.18;;;6.50;;
39074;SDS011;24826;52.070;20.970;2022-09-29T14:47:14;9.80;;;6.43;;
39074;SDS011;24826;52.070;20.970;2022-09-29T14:50:25;9.13;;;5.95;;
39074;SDS011;24826;52.070;20.970;2022-09-29T15:02:43;9.98;;;7.22;;
39074;SDS011;24826;52.070;20.970;2022-09-29T15:05:30;9.48;;;6.95;;
39074;SDS011;24826;52.070;20.970;2022-09-29T15:08:20;14.18;;;8.75;;
39074;SDS011;24826;52.070;20.970;2022-09-29T15:11:27;10.68;;;8.10;;
39074;SDS011;24826;52.070;20.970;2022-09-29T15:14:27;10.23;;;8.23;;
39074;SDS011;24826;52.070;20.970;2022-09-29T15:17:18;10.20;;;7.95;;
39074;SDS011;24826;52.070;20.970;2022-09-29T15:20:08;11.18;;;8.30;;
39074;SDS011;24826;52.070;20.970;2022-09-29T15:25:44;13.80;;;8.20;;
39074;SDS011;24826;52.070;20.970;2022-09-29T15:28:31;9.63;;;7.45;;
39074;SDS011;24826;52.070;20.970;2022-09-29T15:31:20;11.95;;;8.52;;
39074;SDS011;24826;52.070;20.970;2022-09-29T15:34:13;13.85;;;9.45;;
39074;SDS011;24826;52.070;20.970;2022-09-29T15:37:01;12.57;;;9.07;;
39074;SDS011;24826;52.070;20.970;2022-09-29T15:39:49;13.57;;;9.32;;
39074;SDS011;24826;52.070;20.970;2022-09-29T15:42:36;10.50;;;8.98;;
39074;SDS011;24826;52.070;20.970;2022-09-29T15:45:22;13.43;;;9.02;;
39074;SDS011;24826;52.070;20.970;2022-09-29T15:48:11;16.93;;;8.60;;
39074;SDS011;24826;52.070;20.970;2022-09-29T15:50:59;11.57;;;8.70;;
39074;SDS011;24826;52.070;20.970;2022-09-29T15:53:45;14.48;;;9.27;;
39074;SDS011;24826;52.070;20.970;2022-09-29T15:56:30;11.55;;;8.85;;
39074;SDS011;24826;52.070;20.970;2022-09-29T15:59:18;13.05;;;9.63;;
39074;SDS011;24826;52.070;20.970;2022-09-29T16:02:03;14.95;;;10.43;;
39074;SDS011;24826;52.070;20.970;2022-09-29T16:04:57;15.50;;;11.30;;
39074;SDS011;24826;52.070;20.970;2022-09-29T16:07:48;14.65;;;10.90;;
39074;SDS011;24826;52.070;20.970;2022-09-29T16:10:47;17.98;;;11.60;;
39074;SDS011;24826;52.070;20.970;2022-09-29T16:16:25;15.80;;;10.60;;
39074;SDS011;24826;52.070;20.970;2022-09-29T16:22:13;16.92;;;11.43;;
39074;SDS011;24826;52.070;20.970;2022-09-29T16:25:20;17.52;;;11.45;;
39074;SDS011;24826;52.070;20.970;2022-09-29T16:28:09;17.50;;;12.13;;
39074;SDS011;24826;52.070;20.970;2022-09-29T16:31:17;17.23;;;11.50;;
39074;SDS011;24826;52.070;20.970;2022-09-29T16:37:05;15.27;;;11.43;;
39074;SDS011;24826;52.070;20.970;2022-09-29T16:40:00;17.13;;;11.43;;
39074;SDS011;24826;52.070;20.970;2022-09-29T16:42:47;16.35;;;11.85;;
39074;SDS011;24826;52.070;20.970;2022-09-29T16:45:36;20.27;;;12.10;;
39074;SDS011;24826;52.070;20.970;2022-09-29T16:48:20;16.95;;;12.80;;
39074;SDS011;24826;52.070;20.970;2022-09-29T16:51:08;20.13;;;12.40;;
39074;SDS011;24826;52.070;20.970;2022-09-29T16:53:58;17.30;;;12.45;;
39074;SDS011;24826;52.070;20.970;2022-09-29T16:56:43;20.15;;;13.68;;
39074;SDS011;24826;52.070;20.970;2022-09-29T16:59:29;22.40;;;14.18;;
39074;SDS011;24826;52.070;20.970;2022-09-29T17:02:14;19.42;;;13.18;;
39074;SDS011;24826;52.070;20.970;2022-09-29T17:04:58;28.13;;;19.90;;
39074;SDS011;24826;52.070;20.970;2022-09-29T17:07:44;24.58;;;17.80;;
39074;SDS011;24826;52.070;20.970;2022-09-29T17:10:28;25.65;;;17.25;;
39074;SDS011;24826;52.070;20.970;2022-09-29T17:13:14;32.92;;;17.67;;
39074;SDS011;24826;52.070;20.970;2022-09-29T17:15:58;27.50;;;17.35;;
39074;SDS011;24826;52.070;20.970;2022-09-29T17:18:43;26.15;;;18.55;;
39074;SDS011;24826;52.070;20.970;2022-09-29T17:21:28;22.30;;;15.93;;
39074;SDS011;24826;52.070;20.970;2022-09-29T17:24:12;24.83;;;16.73;;
39074;SDS011;24826;52.070;20.970;2022-09-29T17:26:57;25.35;;;17.05;;
39074;SDS011;24826;52.070;20.970;2022-09-29T17:30:00;26.30;;;16.55;;
39074;SDS011;24826;52.070;20.970;2022-09-29T17:32:45;25.05;;;17.17;;
39074;SDS011;24826;52.070;20.970;2022-09-29T17:35:32;26.60;;;17.23;;
39074;SDS011;24826;52.070;20.970;2022-09-29T17:38:19;26.95;;;16.85;;
39074;SDS011;24826;52.070;20.970;2022-09-29T17:41:05;23.75;;;16.23;;
39074;SDS011;24826;52.070;20.970;2022-09-29T17:43:50;23.17;;;16.08;;
39074;SDS011;24826;52.070;20.970;2022-09-29T17:46:37;22.02;;;15.52;;
39074;SDS011;24826;52.070;20.970;2022-09-29T17:49:22;23.67;;;16.73;;
39074;SDS011;24826;52.070;20.970;2022-09-29T17:52:07;23.98;;;16.80;;
39074;SDS011;24826;52.070;20.970;2022-09-29T17:54:53;22.17;;;15.45;;
39074;SDS011;24826;52.070;20.970;2022-09-29T17:57:39;22.52;;;15.13;;
39074;SDS011;24826;52.070;20.970;2022-09-29T18:00:27;26.27;;;17.45;;
39074;SDS011;24826;52.070;20.970;2022-09-29T18:03:15;27.95;;;16.88;;
39074;SDS011;24826;52.070;20.970;2022-09-29T18:06:02;21.55;;;16.00;;
39074;SDS011;24826;52.070;20.970;2022-09-29T18:08:49;22.60;;;15.88;;
39074;SDS011;24826;52.070;20.970;2022-09-29T18:11:34;23.60;;;15.77;;
39074;SDS011;24826;52.070;20.970;2022-09-29T18:14:19;22.35;;;15.88;;
39074;SDS011;24826;52.070;20.970;2022-09-29T18:17:04;21.88;;;15.77;;
39074;SDS011;24826;52.070;20.970;2022-09-29T18:19:49;26.17;;;15.35;;
39074;SDS011;24826;52.070;20.970;2022-09-29T18:22:33;23.00;;;16.02;;
39074;SDS011;24826;52.070;20.970;2022-09-29T18:25:19;21.25;;;15.90;;
39074;SDS011;24826;52.070;20.970;2022-09-29T18:28:04;24.98;;;16.65;;
39074;SDS011;24826;52.070;20.970;2022-09-29T18:30:50;22.75;;;15.60;;
39074;SDS011;24826;52.070;20.970;2022-09-29T18:33:40;25.48;;;17.05;;
39074;SDS011;24826;52.070;20.970;2022-09-29T18:36:26;24.85;;;17.27;;
39074;SDS011;24826;52.070;20.970;2022-09-29T18:39:11;24.90;;;16.15;;
39074;SDS011;24826;52.070;20.970;2022-09-29T18:41:55;23.45;;;17.20;;
39074;SDS011;24826;52.070;20.970;2022-09-29T18:44:40;32.13;;;18.92;;
39074;SDS011;24826;52.070;20.970;2022-09-29T18:47:25;33.95;;;20.95;;
39074;SDS011;24826;52.070;20.970;2022-09-29T18:50:22;30.05;;;21.13;;
39074;SDS011;24826;52.070;20.970;2022-09-29T18:53:09;33.80;;;20.85;;
39074;SDS011;24826;52.070;20.970;2022-09-29T18:56:02;39.63;;;23.30;;
39074;SDS011;24826;52.070;20.970;2022-09-29T18:58:47;31.73;;;20.60;;
39074;SDS011;24826;52.070;20.970;2022-09-29T19:01:31;30.80;;;20.73;;
39074;SDS011;24826;52.070;20.970;2022-09-29T19:04:16;28.73;;;20.27;;
39074;SDS011;24826;52.070;20.970;2022-09-29T19:07:01;29.40;;;21.17;;
39074;SDS011;24826;52.070;20.970;2022-09-29T19:09:48;28.08;;;21.63;;
39074;SDS011;24826;52.070;20.970;2022-09-29T19:12:33;33.17;;;21.10;;
39074;SDS011;24826;52.070;20.970;2022-09-29T19:15:18;29.60;;;21.58;;
39074;SDS011;24826;52.070;20.970;2022-09-29T19:18:04;31.02;;;20.00;;
39074;SDS011;24826;52.070;20.970;2022-09-29T19:20:54;28.05;;;21.10;;
39074;SDS011;24826;52.070;20.970;2022-09-29T19:23:40;32.10;;;24.23;;
39074;SDS011;24826;52.070;20.970;2022-09-29T19:26:26;30.95;;;23.48;;
39074;SDS011;24826;52.070;20.970;2022-09-29T19:29:10;31.75;;;24.30;;
39074;SDS011;24826;52.070;20.970;2022-09-29T19:31:54;33.40;;;25.35;;
39074;SDS011;24826;52.070;20.970;2022-09-29T19:34:39;34.83;;;25.75;;
39074;SDS011;24826;52.070;20.970;2022-09-29T19:37:24;35.65;;;25.42;;